DLH9WE EDDM-LDDU
Flight info
| Callsign | DLH9WE |
|---|---|
| Flight time | 1h 8m |
| Altitude | 37000 |
| Route | VAVOR3S/26L VAVOR M867 RADIZ DCT GIMIX DCT ALIVO DCT SIPAL |
| Aircraft | A321/M-SDE3FGHIRWY/LB1 |
Departure
| Time | 2026-05-07 12:56 |
|---|---|
| Airport | Munich Airport (EDDM) |
Arrival
| Time | 2026-05-07 14:05 |
|---|---|
| Airport | Dubrovnik Ruđer Bošković Airport (LDDU) |
| Time | Latitude | Longitude | Altitude | Speed | Heading |
|---|---|---|---|---|---|
| 2026-05-07 12:08 | 48.35549 | 11.80003 | 1486 ft | 0 kts | 263° |
| 2026-05-07 12:45 | 48.35549 | 11.80004 | 1485 ft | 2 kts | 263° |
| 2026-05-07 12:46 | 48.35552 | 11.80041 | 1481 ft | 4 kts | 263° |
| 2026-05-07 12:46 | 48.35555 | 11.80081 | 1471 ft | 3 kts | 263° |
| 2026-05-07 12:46 | 48.35559 | 11.80112 | 1472 ft | 4 kts | 242° |
| 2026-05-07 12:46 | 48.35576 | 11.80137 | 1474 ft | 4 kts | 189° |
| 2026-05-07 12:47 | 48.35600 | 11.80136 | 1478 ft | 4 kts | 173° |
| 2026-05-07 12:47 | 48.35613 | 11.80134 | 1476 ft | 0 kts | 173° |
| 2026-05-07 12:49 | 48.35612 | 11.80134 | 1476 ft | 1 kts | 173° |
| 2026-05-07 12:50 | 48.35589 | 11.80138 | 1478 ft | 5 kts | 173° |
| 2026-05-07 12:50 | 48.35546 | 11.80146 | 1479 ft | 9 kts | 173° |
| 2026-05-07 12:50 | 48.35478 | 11.80158 | 1479 ft | 11 kts | 173° |
| 2026-05-07 12:50 | 48.35401 | 11.80179 | 1475 ft | 12 kts | 163° |
| 2026-05-07 12:51 | 48.35316 | 11.80199 | 1485 ft | 13 kts | 174° |
| 2026-05-07 12:51 | 48.35223 | 11.80215 | 1485 ft | 14 kts | 174° |
| 2026-05-07 12:51 | 48.35151 | 11.80201 | 1480 ft | 10 kts | 195° |
| 2026-05-07 12:51 | 48.35104 | 11.80129 | 1481 ft | 11 kts | 256° |
| 2026-05-07 12:52 | 48.35095 | 11.80006 | 1482 ft | 14 kts | 264° |
| 2026-05-07 12:52 | 48.35083 | 11.79856 | 1473 ft | 15 kts | 263° |
| 2026-05-07 12:52 | 48.35069 | 11.79702 | 1473 ft | 12 kts | 251° |
| 2026-05-07 12:52 | 48.34996 | 11.79667 | 1485 ft | 12 kts | 174° |
| 2026-05-07 12:53 | 48.34913 | 11.79683 | 1475 ft | 0 kts | 173° |
| 2026-05-07 12:53 | 48.34909 | 11.79684 | 1473 ft | 2 kts | 173° |
| 2026-05-07 12:54 | 48.34868 | 11.79691 | 1475 ft | 9 kts | 174° |
| 2026-05-07 12:54 | 48.34802 | 11.79698 | 1474 ft | 10 kts | 173° |
| 2026-05-07 12:54 | 48.34728 | 11.79712 | 1485 ft | 11 kts | 180° |
| 2026-05-07 12:54 | 48.34671 | 11.79636 | 1476 ft | 12 kts | 233° |
| 2026-05-07 12:55 | 48.34619 | 11.79532 | 1482 ft | 13 kts | 232° |
| 2026-05-07 12:55 | 48.34562 | 11.79419 | 1482 ft | 14 kts | 231° |
| 2026-05-07 12:55 | 48.34501 | 11.79296 | 1480 ft | 15 kts | 236° |
| 2026-05-07 12:55 | 48.34436 | 11.79166 | 1481 ft | 16 kts | 227° |
| 2026-05-07 12:56 | 48.34371 | 11.79038 | 1485 ft | 21 kts | 262° |
| 2026-05-07 12:56 | 48.34325 | 11.78444 | 1486 ft | 93 kts | 263° |
| 2026-05-07 12:56 | 48.34227 | 11.77159 | 1488 ft | 152 kts | 264° |
| 2026-05-07 12:56 | 48.34101 | 11.75543 | 2137 ft | 153 kts | 266° |
| 2026-05-07 12:57 | 48.33974 | 11.73908 | 2805 ft | 163 kts | 265° |
| 2026-05-07 12:57 | 48.33779 | 11.72131 | 3102 ft | 185 kts | 253° |
| 2026-05-07 12:57 | 48.32896 | 11.70592 | 3381 ft | 212 kts | 209° |
| 2026-05-07 12:57 | 48.31409 | 11.70128 | 3891 ft | 224 kts | 186° |
| 2026-05-07 12:58 | 48.29834 | 11.70205 | 4535 ft | 227 kts | 177° |
| 2026-05-07 12:58 | 48.28316 | 11.70926 | 5166 ft | 236 kts | 152° |
| 2026-05-07 12:58 | 48.26950 | 11.72495 | 5400 ft | 262 kts | 143° |
| 2026-05-07 12:58 | 48.25467 | 11.74189 | 5781 ft | 278 kts | 147° |
| 2026-05-07 12:59 | 48.23876 | 11.75882 | 6502 ft | 283 kts | 145° |
| 2026-05-07 12:59 | 48.22339 | 11.77760 | 7215 ft | 286 kts | 142° |
| 2026-05-07 12:59 | 48.20823 | 11.79726 | 7942 ft | 290 kts | 141° |
| 2026-05-07 12:59 | 48.19307 | 11.81737 | 8684 ft | 292 kts | 141° |
| 2026-05-07 13:00 | 48.17781 | 11.83769 | 9437 ft | 295 kts | 141° |
| 2026-05-07 13:00 | 48.16234 | 11.85821 | 10140 ft | 298 kts | 142° |
| 2026-05-07 13:00 | 48.14621 | 11.87939 | 10370 ft | 320 kts | 142° |
| 2026-05-07 13:00 | 48.12885 | 11.90201 | 10501 ft | 342 kts | 142° |
| 2026-05-07 13:01 | 48.11054 | 11.92581 | 10700 ft | 359 kts | 142° |
| 2026-05-07 13:01 | 48.09153 | 11.95056 | 11216 ft | 365 kts | 142° |
| 2026-05-07 13:01 | 48.07226 | 11.97563 | 11803 ft | 369 kts | 142° |
| 2026-05-07 13:01 | 48.05282 | 12.00094 | 12418 ft | 372 kts | 142° |
| 2026-05-07 13:02 | 48.03325 | 12.02637 | 13079 ft | 374 kts | 142° |
| 2026-05-07 13:02 | 48.01354 | 12.05194 | 13686 ft | 377 kts | 142° |
| 2026-05-07 13:02 | 47.99372 | 12.07765 | 14263 ft | 379 kts | 142° |
| 2026-05-07 13:02 | 47.97370 | 12.10356 | 14812 ft | 382 kts | 142° |
| 2026-05-07 13:03 | 47.95351 | 12.12960 | 15357 ft | 385 kts | 142° |
| 2026-05-07 13:03 | 47.93312 | 12.15584 | 15902 ft | 388 kts | 142° |
| 2026-05-07 13:03 | 47.91280 | 12.18176 | 16432 ft | 391 kts | 142° |
| 2026-05-07 13:03 | 47.89193 | 12.20803 | 16965 ft | 394 kts | 143° |
| 2026-05-07 13:04 | 47.87089 | 12.23435 | 17496 ft | 397 kts | 143° |
| 2026-05-07 13:04 | 47.84974 | 12.26078 | 18015 ft | 399 kts | 143° |
| 2026-05-07 13:04 | 47.82834 | 12.28752 | 18487 ft | 402 kts | 143° |
| 2026-05-07 13:04 | 47.80683 | 12.31439 | 18914 ft | 405 kts | 142° |
| 2026-05-07 13:05 | 47.78517 | 12.34144 | 19360 ft | 408 kts | 142° |
| 2026-05-07 13:05 | 47.76342 | 12.36861 | 19813 ft | 410 kts | 142° |
| 2026-05-07 13:05 | 47.74153 | 12.39597 | 20252 ft | 412 kts | 142° |
| 2026-05-07 13:05 | 47.71951 | 12.42350 | 20684 ft | 415 kts | 142° |
| 2026-05-07 13:06 | 47.69747 | 12.45092 | 21131 ft | 417 kts | 142° |
| 2026-05-07 13:06 | 47.67507 | 12.47859 | 21570 ft | 420 kts | 142° |
| 2026-05-07 13:06 | 47.65258 | 12.50625 | 22005 ft | 422 kts | 142° |
| 2026-05-07 13:06 | 47.62989 | 12.53409 | 22440 ft | 425 kts | 143° |
| 2026-05-07 13:07 | 47.60676 | 12.56144 | 22869 ft | 427 kts | 144° |
| 2026-05-07 13:07 | 47.58295 | 12.58803 | 23305 ft | 429 kts | 146° |
| 2026-05-07 13:07 | 47.55875 | 12.61408 | 23705 ft | 431 kts | 146° |
| 2026-05-07 13:07 | 47.53434 | 12.63996 | 24111 ft | 432 kts | 147° |
| 2026-05-07 13:08 | 47.50993 | 12.66589 | 24559 ft | 431 kts | 147° |
| 2026-05-07 13:08 | 47.48561 | 12.69192 | 24971 ft | 432 kts | 146° |
| 2026-05-07 13:08 | 47.46160 | 12.71782 | 25343 ft | 433 kts | 146° |
| 2026-05-07 13:08 | 47.43721 | 12.74424 | 25717 ft | 435 kts | 146° |
| 2026-05-07 13:09 | 47.41282 | 12.77072 | 26091 ft | 436 kts | 146° |
| 2026-05-07 13:09 | 47.38831 | 12.79734 | 26441 ft | 438 kts | 147° |
| 2026-05-07 13:09 | 47.36372 | 12.82398 | 26781 ft | 440 kts | 147° |
| 2026-05-07 13:09 | 47.33898 | 12.85072 | 27126 ft | 441 kts | 147° |
| 2026-05-07 13:10 | 47.31408 | 12.87753 | 27443 ft | 443 kts | 147° |
| 2026-05-07 13:10 | 47.28911 | 12.90435 | 27778 ft | 445 kts | 147° |
| 2026-05-07 13:10 | 47.26401 | 12.93126 | 28060 ft | 446 kts | 147° |
| 2026-05-07 13:10 | 47.23894 | 12.95814 | 28414 ft | 446 kts | 147° |
| 2026-05-07 13:11 | 47.21383 | 12.98508 | 28704 ft | 447 kts | 147° |
| 2026-05-07 13:11 | 47.18867 | 13.01209 | 28981 ft | 448 kts | 147° |
| 2026-05-07 13:11 | 47.16345 | 13.03913 | 29289 ft | 449 kts | 147° |
| 2026-05-07 13:11 | 47.13819 | 13.06618 | 29678 ft | 448 kts | 147° |
| 2026-05-07 13:12 | 47.11337 | 13.09270 | 30156 ft | 446 kts | 147° |
| 2026-05-07 13:12 | 47.08846 | 13.11931 | 30491 ft | 445 kts | 147° |
| 2026-05-07 13:12 | 47.06339 | 13.14602 | 30763 ft | 445 kts | 148° |
| 2026-05-07 13:12 | 47.03830 | 13.17269 | 30966 ft | 446 kts | 148° |
| 2026-05-07 13:13 | 47.01310 | 13.19946 | 31116 ft | 449 kts | 148° |
| 2026-05-07 13:13 | 46.98773 | 13.22637 | 31300 ft | 451 kts | 149° |
| 2026-05-07 13:13 | 46.96232 | 13.25329 | 31521 ft | 451 kts | 149° |
| 2026-05-07 13:13 | 46.93687 | 13.28021 | 31779 ft | 451 kts | 149° |
| 2026-05-07 13:14 | 46.91144 | 13.30715 | 32041 ft | 452 kts | 149° |
| 2026-05-07 13:14 | 46.88597 | 13.33410 | 32324 ft | 452 kts | 149° |
| 2026-05-07 13:14 | 46.86046 | 13.36099 | 32625 ft | 452 kts | 149° |
| 2026-05-07 13:14 | 46.83496 | 13.38779 | 32883 ft | 452 kts | 149° |
| 2026-05-07 13:15 | 46.80941 | 13.41464 | 33120 ft | 453 kts | 149° |
| 2026-05-07 13:15 | 46.78383 | 13.44151 | 33311 ft | 453 kts | 150° |
| 2026-05-07 13:15 | 46.75824 | 13.46840 | 33483 ft | 453 kts | 150° |
| 2026-05-07 13:15 | 46.73263 | 13.49530 | 33703 ft | 454 kts | 150° |
| 2026-05-07 13:16 | 46.70703 | 13.52218 | 33935 ft | 453 kts | 151° |
| 2026-05-07 13:16 | 46.68155 | 13.54892 | 34221 ft | 450 kts | 151° |
| 2026-05-07 13:16 | 46.65619 | 13.57548 | 34420 ft | 449 kts | 151° |
| 2026-05-07 13:16 | 46.63076 | 13.60204 | 34619 ft | 449 kts | 151° |
| 2026-05-07 13:17 | 46.60534 | 13.62855 | 34794 ft | 450 kts | 150° |
| 2026-05-07 13:17 | 46.57994 | 13.65499 | 34990 ft | 450 kts | 151° |
| 2026-05-07 13:17 | 46.55443 | 13.68142 | 35159 ft | 450 kts | 151° |
| 2026-05-07 13:17 | 46.52917 | 13.70754 | 35310 ft | 451 kts | 151° |
| 2026-05-07 13:18 | 46.50360 | 13.73406 | 35489 ft | 452 kts | 150° |
| 2026-05-07 13:18 | 46.47806 | 13.76076 | 35677 ft | 453 kts | 150° |
| 2026-05-07 13:18 | 46.45251 | 13.78760 | 35904 ft | 453 kts | 150° |
| 2026-05-07 13:18 | 46.42706 | 13.81435 | 36105 ft | 452 kts | 150° |
| 2026-05-07 13:19 | 46.40162 | 13.84102 | 36337 ft | 450 kts | 150° |
| 2026-05-07 13:19 | 46.37621 | 13.86759 | 36519 ft | 451 kts | 150° |
| 2026-05-07 13:19 | 46.35074 | 13.89417 | 36695 ft | 451 kts | 150° |
| 2026-05-07 13:19 | 46.32528 | 13.92063 | 36854 ft | 451 kts | 150° |
| 2026-05-07 13:20 | 46.29978 | 13.94705 | 36958 ft | 453 kts | 150° |
| 2026-05-07 13:20 | 46.27415 | 13.97357 | 36985 ft | 454 kts | 150° |
| 2026-05-07 13:20 | 46.22279 | 14.02670 | 36983 ft | 453 kts | 150° |
| 2026-05-07 13:21 | 46.17150 | 14.07977 | 36960 ft | 453 kts | 150° |
| 2026-05-07 13:21 | 46.12881 | 14.12381 | 36979 ft | 453 kts | 150° |
| 2026-05-07 13:22 | 46.07750 | 14.17667 | 36975 ft | 453 kts | 150° |
| 2026-05-07 13:22 | 46.02608 | 14.22957 | 36977 ft | 454 kts | 151° |
| 2026-05-07 13:23 | 45.97444 | 14.28232 | 36983 ft | 455 kts | 151° |
| 2026-05-07 13:23 | 45.92351 | 14.33430 | 36993 ft | 456 kts | 151° |
| 2026-05-07 13:24 | 45.87180 | 14.38710 | 36994 ft | 456 kts | 151° |
| 2026-05-07 13:24 | 45.82008 | 14.43967 | 37008 ft | 456 kts | 151° |
| 2026-05-07 13:25 | 45.76867 | 14.49179 | 37012 ft | 456 kts | 151° |
| 2026-05-07 13:25 | 45.71688 | 14.54425 | 37024 ft | 456 kts | 151° |
| 2026-05-07 13:26 | 45.66506 | 14.59660 | 37021 ft | 456 kts | 151° |
| 2026-05-07 13:26 | 45.61314 | 14.64883 | 36996 ft | 456 kts | 151° |
| 2026-05-07 13:27 | 45.56116 | 14.70115 | 37010 ft | 456 kts | 151° |
| 2026-05-07 13:27 | 45.50924 | 14.75336 | 37027 ft | 457 kts | 151° |
| 2026-05-07 13:28 | 45.45759 | 14.80624 | 37027 ft | 458 kts | 150° |
| 2026-05-07 13:28 | 45.40633 | 14.85921 | 37035 ft | 457 kts | 150° |
| 2026-05-07 13:29 | 45.35664 | 14.91023 | 37009 ft | 457 kts | 150° |
| 2026-05-07 13:29 | 45.30497 | 14.96294 | 37030 ft | 457 kts | 151° |
| 2026-05-07 13:30 | 45.25324 | 15.01547 | 37022 ft | 457 kts | 151° |
| 2026-05-07 13:30 | 45.20189 | 15.06763 | 37018 ft | 457 kts | 151° |
| 2026-05-07 13:31 | 45.15021 | 15.12015 | 37000 ft | 457 kts | 151° |
| 2026-05-07 13:31 | 45.09838 | 15.17257 | 37005 ft | 458 kts | 151° |
| 2026-05-07 13:32 | 45.04643 | 15.22494 | 37016 ft | 459 kts | 151° |
| 2026-05-07 13:32 | 44.99447 | 15.27733 | 37018 ft | 459 kts | 151° |
| 2026-05-07 13:33 | 44.94238 | 15.32960 | 37026 ft | 459 kts | 151° |
| 2026-05-07 13:33 | 44.89030 | 15.38170 | 37014 ft | 460 kts | 151° |
| 2026-05-07 13:34 | 44.81202 | 15.45992 | 37019 ft | 460 kts | 151° |
| 2026-05-07 13:35 | 44.75986 | 15.51190 | 37028 ft | 459 kts | 151° |
| 2026-05-07 13:35 | 44.70801 | 15.56354 | 37031 ft | 459 kts | 151° |
| 2026-05-07 13:36 | 44.65580 | 15.61535 | 37032 ft | 459 kts | 151° |
| 2026-05-07 13:36 | 44.60356 | 15.66713 | 37020 ft | 459 kts | 151° |
| 2026-05-07 13:37 | 44.55125 | 15.71870 | 37033 ft | 460 kts | 151° |
| 2026-05-07 13:37 | 44.49888 | 15.77023 | 37042 ft | 460 kts | 151° |
| 2026-05-07 13:38 | 44.44642 | 15.82173 | 37036 ft | 460 kts | 151° |
| 2026-05-07 13:38 | 44.39404 | 15.87312 | 37043 ft | 461 kts | 151° |
| 2026-05-07 13:39 | 44.34143 | 15.92467 | 37035 ft | 461 kts | 151° |
| 2026-05-07 13:39 | 44.28916 | 15.97576 | 37067 ft | 462 kts | 151° |
| 2026-05-07 13:40 | 44.23647 | 16.02717 | 37047 ft | 462 kts | 151° |
| 2026-05-07 13:40 | 44.18371 | 16.07845 | 37050 ft | 462 kts | 151° |
| 2026-05-07 13:41 | 44.13086 | 16.12966 | 37072 ft | 463 kts | 151° |
| 2026-05-07 13:41 | 44.07803 | 16.18079 | 37052 ft | 462 kts | 151° |
| 2026-05-07 13:42 | 44.02514 | 16.23186 | 37053 ft | 463 kts | 151° |
| 2026-05-07 13:42 | 43.97225 | 16.28295 | 37060 ft | 463 kts | 151° |
| 2026-05-07 13:43 | 43.91933 | 16.33397 | 37073 ft | 463 kts | 151° |
| 2026-05-07 13:43 | 43.89280 | 16.35942 | 36854 ft | 462 kts | 151° |
| 2026-05-07 13:43 | 43.86638 | 16.38470 | 36589 ft | 462 kts | 151° |
| 2026-05-07 13:43 | 43.83993 | 16.40996 | 36331 ft | 461 kts | 151° |
| 2026-05-07 13:44 | 43.81359 | 16.43508 | 36074 ft | 460 kts | 151° |
| 2026-05-07 13:44 | 43.78716 | 16.46030 | 35799 ft | 461 kts | 152° |
| 2026-05-07 13:44 | 43.76112 | 16.48517 | 35251 ft | 460 kts | 152° |
| 2026-05-07 13:44 | 43.73474 | 16.51036 | 34552 ft | 461 kts | 152° |
| 2026-05-07 13:45 | 43.70819 | 16.53566 | 33686 ft | 465 kts | 152° |
| 2026-05-07 13:45 | 43.68146 | 16.56109 | 32787 ft | 467 kts | 152° |
| 2026-05-07 13:45 | 43.65545 | 16.58579 | 31920 ft | 468 kts | 152° |
| 2026-05-07 13:45 | 43.62847 | 16.61139 | 31014 ft | 470 kts | 152° |
| 2026-05-07 13:46 | 43.60145 | 16.63700 | 30027 ft | 473 kts | 151° |
| 2026-05-07 13:46 | 43.57426 | 16.66275 | 28993 ft | 473 kts | 151° |
| 2026-05-07 13:46 | 43.54723 | 16.68836 | 28322 ft | 466 kts | 151° |
| 2026-05-07 13:46 | 43.52101 | 16.71324 | 27708 ft | 459 kts | 151° |
| 2026-05-07 13:47 | 43.49494 | 16.73793 | 27085 ft | 452 kts | 151° |
| 2026-05-07 13:47 | 43.46919 | 16.76227 | 26465 ft | 446 kts | 151° |
| 2026-05-07 13:47 | 43.44372 | 16.78630 | 25864 ft | 441 kts | 151° |
| 2026-05-07 13:47 | 43.41856 | 16.81001 | 25262 ft | 435 kts | 151° |
| 2026-05-07 13:48 | 43.39369 | 16.83342 | 24665 ft | 431 kts | 151° |
| 2026-05-07 13:48 | 43.36908 | 16.85657 | 24078 ft | 426 kts | 151° |
| 2026-05-07 13:48 | 43.34475 | 16.87939 | 23448 ft | 421 kts | 151° |
| 2026-05-07 13:48 | 43.32069 | 16.90190 | 22852 ft | 415 kts | 151° |
| 2026-05-07 13:49 | 43.29703 | 16.92404 | 22311 ft | 408 kts | 151° |
| 2026-05-07 13:49 | 43.27369 | 16.94588 | 21763 ft | 402 kts | 151° |
| 2026-05-07 13:49 | 43.25072 | 16.96733 | 21242 ft | 397 kts | 151° |
| 2026-05-07 13:49 | 43.22808 | 16.98847 | 20728 ft | 392 kts | 151° |
| 2026-05-07 13:50 | 43.20568 | 17.00937 | 20237 ft | 387 kts | 151° |
| 2026-05-07 13:50 | 43.18383 | 17.02972 | 19764 ft | 382 kts | 150° |
| 2026-05-07 13:50 | 43.16196 | 17.05013 | 19286 ft | 380 kts | 150° |
| 2026-05-07 13:50 | 43.14137 | 17.07314 | 18823 ft | 383 kts | 140° |
| 2026-05-07 13:51 | 43.12378 | 17.10042 | 18345 ft | 385 kts | 130° |
| 2026-05-07 13:51 | 43.10870 | 17.13068 | 17829 ft | 384 kts | 128° |
| 2026-05-07 13:51 | 43.09396 | 17.16082 | 17344 ft | 381 kts | 128° |
| 2026-05-07 13:51 | 43.07927 | 17.19076 | 16865 ft | 377 kts | 127° |
| 2026-05-07 13:52 | 43.06470 | 17.22047 | 16353 ft | 374 kts | 127° |
| 2026-05-07 13:52 | 43.05027 | 17.24984 | 15854 ft | 371 kts | 127° |
| 2026-05-07 13:52 | 43.03592 | 17.27897 | 15342 ft | 367 kts | 127° |
| 2026-05-07 13:52 | 43.02169 | 17.30779 | 14833 ft | 364 kts | 127° |
| 2026-05-07 13:53 | 43.00759 | 17.33635 | 14318 ft | 361 kts | 127° |
| 2026-05-07 13:53 | 42.99360 | 17.36467 | 13791 ft | 358 kts | 127° |
| 2026-05-07 13:53 | 42.97971 | 17.39285 | 13250 ft | 355 kts | 127° |
| 2026-05-07 13:53 | 42.96617 | 17.42023 | 12754 ft | 351 kts | 127° |
| 2026-05-07 13:54 | 42.95241 | 17.44805 | 12247 ft | 347 kts | 127° |
| 2026-05-07 13:54 | 42.93893 | 17.47525 | 11740 ft | 344 kts | 127° |
| 2026-05-07 13:54 | 42.92559 | 17.50215 | 11255 ft | 341 kts | 127° |
| 2026-05-07 13:54 | 42.91246 | 17.52870 | 10848 ft | 335 kts | 127° |
| 2026-05-07 13:55 | 42.89862 | 17.55263 | 10709 ft | 318 kts | 137° |
| 2026-05-07 13:55 | 42.88352 | 17.57362 | 10592 ft | 303 kts | 137° |
| 2026-05-07 13:55 | 42.86898 | 17.59389 | 10325 ft | 296 kts | 137° |
| 2026-05-07 13:55 | 42.85475 | 17.61374 | 10257 ft | 292 kts | 137° |
| 2026-05-07 13:56 | 42.84051 | 17.63353 | 10158 ft | 293 kts | 137° |
| 2026-05-07 13:56 | 42.82619 | 17.65333 | 10036 ft | 293 kts | 137° |
| 2026-05-07 13:56 | 42.81190 | 17.67313 | 9725 ft | 295 kts | 139° |
| 2026-05-07 13:56 | 42.79750 | 17.69309 | 9350 ft | 292 kts | 139° |
| 2026-05-07 13:57 | 42.78336 | 17.71274 | 8941 ft | 290 kts | 138° |
| 2026-05-07 13:57 | 42.77113 | 17.73448 | 8525 ft | 292 kts | 123° |
| 2026-05-07 13:57 | 42.76168 | 17.75887 | 8105 ft | 290 kts | 121° |
| 2026-05-07 13:57 | 42.75231 | 17.78311 | 7666 ft | 287 kts | 121° |
| 2026-05-07 13:58 | 42.74298 | 17.80704 | 7252 ft | 286 kts | 121° |
| 2026-05-07 13:58 | 42.73378 | 17.83052 | 6856 ft | 282 kts | 122° |
| 2026-05-07 13:58 | 42.72460 | 17.85391 | 6308 ft | 279 kts | 122° |
| 2026-05-07 13:58 | 42.71550 | 17.87706 | 5832 ft | 277 kts | 122° |
| 2026-05-07 13:59 | 42.70639 | 17.89999 | 5309 ft | 277 kts | 122° |
| 2026-05-07 13:59 | 42.69740 | 17.92291 | 4907 ft | 270 kts | 122° |
| 2026-05-07 13:59 | 42.68879 | 17.94495 | 4743 ft | 259 kts | 123° |
| 2026-05-07 13:59 | 42.68050 | 17.96609 | 4631 ft | 249 kts | 122° |
| 2026-05-07 14:00 | 42.67253 | 17.98641 | 4518 ft | 238 kts | 122° |
| 2026-05-07 14:00 | 42.66489 | 18.00586 | 4402 ft | 232 kts | 122° |
| 2026-05-07 14:00 | 42.65737 | 18.02498 | 4184 ft | 227 kts | 122° |
| 2026-05-07 14:00 | 42.65004 | 18.04361 | 3887 ft | 221 kts | 122° |
| 2026-05-07 14:01 | 42.64288 | 18.06181 | 3599 ft | 216 kts | 122° |
| 2026-05-07 14:01 | 42.63588 | 18.07960 | 3315 ft | 211 kts | 121° |
| 2026-05-07 14:01 | 42.62922 | 18.09652 | 3056 ft | 201 kts | 121° |
| 2026-05-07 14:01 | 42.62284 | 18.11270 | 2789 ft | 190 kts | 120° |
| 2026-05-07 14:02 | 42.61677 | 18.12811 | 2539 ft | 179 kts | 120° |
| 2026-05-07 14:02 | 42.61101 | 18.14270 | 2304 ft | 171 kts | 121° |
| 2026-05-07 14:02 | 42.60550 | 18.15665 | 2092 ft | 162 kts | 120° |
| 2026-05-07 14:02 | 42.60052 | 18.16928 | 1881 ft | 143 kts | 121° |
| 2026-05-07 14:03 | 42.59589 | 18.18099 | 1682 ft | 140 kts | 120° |
| 2026-05-07 14:03 | 42.59135 | 18.19245 | 1497 ft | 139 kts | 120° |
| 2026-05-07 14:03 | 42.58678 | 18.20393 | 1326 ft | 139 kts | 120° |
| 2026-05-07 14:03 | 42.58225 | 18.21547 | 1101 ft | 138 kts | 120° |
| 2026-05-07 14:04 | 42.57777 | 18.22688 | 910 ft | 138 kts | 120° |
| 2026-05-07 14:04 | 42.57324 | 18.23831 | 740 ft | 140 kts | 122° |
| 2026-05-07 14:04 | 42.56876 | 18.24966 | 555 ft | 133 kts | 122° |
| 2026-05-07 14:04 | 42.56474 | 18.25970 | 535 ft | 104 kts | 118° |
| 2026-05-07 14:05 | 42.56207 | 18.26646 | 534 ft | 66 kts | 118° |
| 2026-05-07 14:05 | 42.56008 | 18.27150 | 534 ft | 55 kts | 118° |
| 2026-05-07 14:05 | 42.55896 | 18.27321 | 532 ft | 19 kts | 165° |
| 2026-05-07 14:05 | 42.55776 | 18.27327 | 534 ft | 8 kts | 213° |
| 2026-05-07 14:06 | 42.55776 | 18.27268 | 534 ft | 8 kts | 289° |
| 2026-05-07 14:06 | 42.55807 | 18.27185 | 534 ft | 13 kts | 297° |
| 2026-05-07 14:06 | 42.55856 | 18.27057 | 534 ft | 18 kts | 298° |
| 2026-05-07 14:06 | 42.55918 | 18.26900 | 534 ft | 20 kts | 297° |
| 2026-05-07 14:07 | 42.55985 | 18.26732 | 534 ft | 21 kts | 298° |
| 2026-05-07 14:07 | 42.56057 | 18.26551 | 534 ft | 22 kts | 298° |
| 2026-05-07 14:07 | 42.56126 | 18.26380 | 534 ft | 22 kts | 298° |
| 2026-05-07 14:07 | 42.56151 | 18.26282 | 534 ft | 7 kts | 246° |
| 2026-05-07 14:08 | 42.56121 | 18.26258 | 534 ft | 3 kts | 210° |
| 2026-05-07 14:08 | 42.56113 | 18.26251 | 534 ft | 2 kts | 209° |
| 2026-05-07 14:08 | 42.56109 | 18.26249 | 534 ft | 0 kts | 208° |